Uvalda, Georgia
Current Conditions -  °F | °C
As of 3:35 AM on Wednesday 26 Nov 2014 (Local Time) from KAZE Reporting Station
Drizzle Drizzle  
Wind Chill: 43°   Ceiling: 500
Heat Index: 47°   Visibility: 7mi
Dew Point: 47°   Wind: 10mph
Humidity: 100%   Direction: 330°NNW
Pressure: 29.96"   Gusts: 16mph
Location:  32.04°N, 82.51°W
Report Text: KAZE 260835Z AUTO 33009G14KT 7SM DZ OVC005 09/09 A2996 RMK AO2 T00860086
Loading
Personal Weather Stations






























Interactive Weather Map New forecast layout! Learn more

10-Day Weather Forecast

Advertisements
Track Severe Weather on mobile